Time;durP1;ratioP1;P1;durP2;ratioP2;P2;SDS_P1;SDS_P2;PMS_P1;PMS_P2;Temp;Humidity;BMP_temperature;BMP_pressure;BME280_temperature;BME280_humidity;BME280_pressure;Samples;Min_cycle;Max_cycle;Signal;HPM_P1;HPM_P2
2022/02/23 00:01:55;;;;;;;14.87;2.83;;;;;;;5.80;77.69;100897.69;5030610;28;20218;-71
2022/02/23 00:04:22;;;;;;;11.50;2.57;;;;;;;5.78;78.19;100894.25;5029951;28;20663;-71
2022/02/23 00:06:48;;;;;;;11.50;2.60;;;;;;;5.78;77.96;100906.59;5026370;28;20718;-71
2022/02/23 00:09:15;;;;;;;15.03;2.70;;;;;;;5.74;77.98;100907.66;5031182;28;20208;-71
2022/02/23 00:11:41;;;;;;;8.97;2.80;;;;;;;5.74;78.45;100923.50;5027085;28;20741;-71
2022/02/23 00:14:09;;;;;;;11.37;2.43;;;;;;;5.70;78.67;100920.13;5022755;28;20210;-71
2022/02/23 00:16:36;;;;;;;13.10;2.57;;;;;;;5.70;78.64;100928.06;5024364;28;20202;-71
2022/02/23 00:19:02;;;;;;;10.30;2.43;;;;;;;5.69;78.83;100925.47;5029030;28;20204;-71
2022/02/23 00:21:29;;;;;;;14.43;3.27;;;;;;;5.70;78.89;100932.50;5030003;28;20317;-72
2022/02/23 00:23:55;;;;;;;13.77;3.30;;;;;;;5.71;79.08;100942.16;5025789;28;20245;-71
2022/02/23 00:26:22;;;;;;;11.23;2.70;;;;;;;5.71;79.08;100943.00;5028332;28;20213;-71
2022/02/23 00:28:48;;;;;;;11.60;2.90;;;;;;;5.71;79.31;100950.94;5026774;28;20218;-71
2022/02/23 00:31:16;;;;;;;11.67;3.00;;;;;;;5.69;79.28;100942.19;5029111;28;20257;-71
2022/02/23 00:33:43;;;;;;;12.23;2.70;;;;;;;5.69;79.65;100941.34;5027972;28;20206;-72
2022/02/23 00:36:09;;;;;;;17.47;2.57;;;;;;;5.68;79.26;100955.47;5025624;28;20202;-70
2022/02/23 00:38:36;;;;;;;10.17;2.60;;;;;;;5.68;79.45;100951.03;5027253;28;20206;-71
2022/02/23 00:41:03;;;;;;;9.77;2.23;;;;;;;5.69;79.66;100958.06;5025560;28;20253;-72
2022/02/23 00:43:29;;;;;;;11.40;2.77;;;;;;;5.69;79.95;100967.75;5024432;28;20210;-72
2022/02/23 00:45:56;;;;;;;14.50;2.63;;;;;;;5.69;79.86;100968.63;5026647;28;20202;-71
2022/02/23 00:48:23;;;;;;;14.47;2.13;;;;;;;5.69;80.11;100970.41;5030461;28;20565;-71
2022/02/23 00:50:50;;;;;;;13.53;3.00;;;;;;;5.68;80.27;100966.03;5024420;28;20210;-71
2022/02/23 00:53:16;;;;;;;13.47;3.13;;;;;;;5.67;80.44;100972.25;5028897;28;20237;-71
2022/02/23 00:55:43;;;;;;;13.60;2.27;;;;;;;5.66;80.32;100973.16;5023328;28;20578;-71
2022/02/23 00:58:10;;;;;;;7.03;2.27;;;;;;;5.65;80.28;100982.00;5030179;28;20210;-71
2022/02/23 01:00:36;;;;;;;16.13;2.90;;;;;;;5.63;80.66;100978.56;5028242;28;20210;-71
2022/02/23 01:03:03;;;;;;;11.27;2.57;;;;;;;5.63;80.50;100991.75;5026666;28;20598;-71
2022/02/23 01:05:31;;;;;;;13.30;3.47;;;;;;;5.60;80.64;100995.38;5029413;28;20206;-71
2022/02/23 01:07:58;;;;;;;13.50;2.97;;;;;;;5.59;80.61;100999.81;5015327;28;20214;-71
2022/02/23 01:10:24;;;;;;;11.80;2.53;;;;;;;5.58;80.73;101008.66;5023103;28;20236;-71
2022/02/23 01:12:52;;;;;;;12.80;2.53;;;;;;;5.56;80.77;101005.19;5011511;28;20239;-71
2022/02/23 01:15:19;;;;;;;10.67;2.47;;;;;;;5.55;80.81;101014.03;5012225;28;20297;-71
2022/02/23 01:17:45;;;;;;;12.93;2.80;;;;;;;5.55;81.13;101013.22;5011058;28;20218;-71
2022/02/23 01:20:12;;;;;;;13.33;2.10;;;;;;;5.54;81.22;101015.00;5013554;28;20214;-71
2022/02/23 01:22:40;;;;;;;12.90;2.70;;;;;;;5.54;81.00;101016.75;5012517;28;20241;-71
2022/02/23 01:25:08;;;;;;;8.17;2.10;;;;;;;5.55;81.08;101019.31;5022886;28;20211;-71
2022/02/23 01:27:34;;;;;;;14.23;2.70;;;;;;;5.56;81.22;101025.47;5029547;23;20229;-80
2022/02/23 01:30:01;;;;;;;11.33;2.60;;;;;;;5.59;81.35;101014.78;5039569;28;20199;-80
2022/02/23 01:32:27;;;;;;;19.00;3.37;;;;;;;5.63;80.71;101023.47;5038255;28;20230;-80
2022/02/23 01:34:54;;;;;;;16.47;2.80;;;;;;;5.64;81.08;101022.56;5031811;28;20209;-80
2022/02/23 01:37:21;;;;;;;13.50;2.50;;;;;;;5.65;80.97;101024.28;5025247;28;20275;-81
2022/02/23 01:39:49;;;;;;;11.07;3.33;;;;;;;5.68;81.20;101032.09;5021675;28;20210;-81
2022/02/23 01:42:16;;;;;;;13.23;2.63;;;;;;;5.69;80.70;101041.75;5024742;28;20689;-81
2022/02/23 01:44:42;;;;;;;11.87;2.53;;;;;;;5.71;80.79;101026.72;5033403;28;20206;-82
2022/02/23 01:47:09;;;;;;;14.30;2.40;;;;;;;5.68;80.58;101035.59;5032884;28;20225;-81
2022/02/23 01:49:36;;;;;;;14.07;3.20;;;;;;;5.70;80.73;101032.91;5022193;28;20691;-80
2022/02/23 01:52:03;;;;;;;20.67;3.33;;;;;;;5.70;80.72;101044.34;5021222;28;20233;-80
2022/02/23 01:54:30;;;;;;;13.17;2.73;;;;;;;5.73;80.26;101051.31;5028413;28;20213;-83
2022/02/23 01:56:59;;;;;;;15.73;3.00;;;;;;;5.72;80.52;101041.66;5031468;28;20206;-81
2022/02/23 01:59:26;;;;;;;17.00;2.90;;;;;;;5.72;79.95;101062.78;5041644;28;20668;-82
2022/02/23 02:01:53;;;;;;;11.33;2.17;;;;;;;5.71;80.11;101061.94;5030944;28;20202;-81
2022/02/23 02:04:21;;;;;;;19.00;4.23;;;;;;;5.71;80.04;101064.56;5022611;28;20230;-82
2022/02/23 02:06:49;;;;;;;15.90;2.63;;;;;;;5.71;80.23;101067.22;5034055;28;20210;-81
2022/02/23 02:09:15;;;;;;;11.73;2.43;;;;;;;5.71;80.39;101084.84;5034697;28;20271;-82
2022/02/23 02:11:42;;;;;;;10.63;2.23;;;;;;;5.73;80.13;101080.38;5033972;28;20234;-81
2022/02/23 02:14:10;;;;;;;8.17;2.00;;;;;;;5.72;79.95;101084.78;5034294;28;20881;-81
2022/02/23 02:16:37;;;;;;;13.10;2.07;;;;;;;5.74;80.17;101068.84;5032827;28;20199;-81
2022/02/23 02:19:04;;;;;;;9.27;2.20;;;;;;;5.73;80.06;101090.94;5035065;28;20210;-82
2022/02/23 02:21:51;;;;;;;12.20;2.53;;;;;;;5.74;79.79;101080.28;5030752;28;20214;-82
2022/02/23 02:24:18;;;;;;;13.23;2.17;;;;;;;5.75;79.47;101089.06;5016879;28;20237;-81
2022/02/23 02:26:44;;;;;;;14.27;2.30;;;;;;;5.76;79.70;101090.81;5023445;28;20237;-82
2022/02/23 02:29:11;;;;;;;12.13;2.47;;;;;;;5.76;79.45;101098.72;5031962;28;20292;-82
2022/02/23 02:31:37;;;;;;;11.10;2.33;;;;;;;5.77;79.62;101101.31;5028230;28;20229;-82
2022/02/23 02:34:04;;;;;;;15.27;2.30;;;;;;;5.76;79.53;101109.31;5033033;28;20252;-82
2022/02/23 02:36:32;;;;;;;14.37;3.13;;;;;;;5.77;79.46;101113.69;5032009;28;20590;-82
2022/02/23 02:38:58;;;;;;;11.60;2.63;;;;;;;5.78;79.33;101120.69;5031578;28;20306;-82
2022/02/23 02:41:25;;;;;;;12.67;2.30;;;;;;;5.80;79.75;101108.28;5023138;28;20216;-82
2022/02/23 02:43:52;;;;;;;10.13;2.67;;;;;;;5.78;79.43;101104.81;5029131;28;20579;-81
2022/02/23 02:46:18;;;;;;;10.27;2.50;;;;;;;5.78;78.79;101118.03;5032941;28;20652;-81
2022/02/23 02:48:45;;;;;;;12.93;2.20;;;;;;;5.78;79.35;101120.69;5020496;28;20210;-82
2022/02/23 02:51:11;;;;;;;10.30;2.73;;;;;;;5.77;79.15;101132.19;5030393;28;20299;-81
2022/02/23 02:53:39;;;;;;;10.07;3.17;;;;;;;5.78;78.99;101125.97;5027378;28;21849;-81
2022/02/23 02:56:05;;;;;;;11.77;2.10;;;;;;;5.77;78.93;101135.69;5029517;28;20214;-81
2022/02/23 02:58:32;;;;;;;11.37;2.03;;;;;;;5.76;78.68;101144.53;5035972;28;20301;-81
2022/02/23 03:00:59;;;;;;;10.87;2.30;;;;;;;5.76;79.07;101138.38;5037119;28;20210;-81
2022/02/23 03:03:25;;;;;;;8.63;2.00;;;;;;;5.75;78.49;101147.22;5023091;28;20226;-81
2022/02/23 03:05:52;;;;;;;10.07;1.90;;;;;;;5.71;78.84;101151.78;5034673;28;20209;-82
2022/02/23 03:08:18;;;;;;;12.03;2.50;;;;;;;5.69;78.84;101160.66;5023150;28;20210;-83
2022/02/23 03:10:46;;;;;;;12.20;2.87;;;;;;;5.68;79.07;101165.09;5036898;28;20219;-81
2022/02/23 03:13:13;;;;;;;16.17;2.70;;;;;;;5.65;79.21;101164.34;5022060;28;20241;-82
2022/02/23 03:15:39;;;;;;;12.07;2.17;;;;;;;5.65;78.99;101172.25;5030581;28;20206;-82
2022/02/23 03:18:06;;;;;;;12.80;2.70;;;;;;;5.66;79.22;101184.56;5034894;28;20219;-81
2022/02/23 03:20:34;;;;;;;12.70;2.00;;;;;;;5.65;79.18;101177.53;5034041;28;20241;-82
2022/02/23 03:23:01;;;;;;;9.30;1.97;;;;;;;5.63;79.14;101188.16;5035525;28;20226;-82
2022/02/23 03:25:27;;;;;;;13.57;2.57;;;;;;;5.63;79.37;101193.44;5028558;28;20754;-81
2022/02/23 03:27:55;;;;;;;12.27;3.63;;;;;;;5.62;79.41;101196.13;5026508;28;20215;-81
2022/02/23 03:30:22;;;;;;;9.23;2.07;;;;;;;5.61;79.24;101218.19;5030880;28;20216;-81
2022/02/23 03:32:49;;;;;;;8.53;2.50;;;;;;;5.59;79.41;101221.75;5034236;28;20696;-81
2022/02/23 03:35:17;;;;;;;8.83;2.00;;;;;;;5.57;79.38;101220.94;5032481;28;20213;-81
2022/02/23 03:37:43;;;;;;;15.33;2.73;;;;;;;5.55;79.68;101214.81;5043570;28;20238;-82
2022/02/23 03:40:11;;;;;;;9.50;2.33;;;;;;;5.54;79.77;101229.00;5041764;28;20214;-82
2022/02/23 03:42:38;;;;;;;11.67;2.17;;;;;;;5.54;79.41;101236.91;5015228;28;20322;-82
2022/02/23 03:45:06;;;;;;;9.20;1.90;;;;;;;5.51;79.68;101234.38;5017366;28;20221;-82
2022/02/23 03:47:33;;;;;;;11.03;2.77;;;;;;;5.51;79.40;101244.06;5030147;28;20211;-82
2022/02/23 03:49:59;;;;;;;15.83;2.40;;;;;;;5.49;79.40;101238.84;5025864;28;20210;-82
2022/02/23 03:52:26;;;;;;;10.53;2.40;;;;;;;5.47;79.39;101253.00;5034971;28;20249;-82
2022/02/23 03:54:52;;;;;;;11.90;2.37;;;;;;;5.45;79.11;101255.69;5035017;28;20206;-82
2022/02/23 03:57:19;;;;;;;9.93;1.67;;;;;;;5.42;78.99;101254.91;5023147;28;20756;-82
2022/02/23 03:59:46;;;;;;;12.37;2.20;;;;;;;5.40;78.97;101262.91;5015546;28;20211;-82
2022/02/23 04:02:14;;;;;;;10.23;2.40;;;;;;;5.39;78.96;101262.94;5025603;28;20568;-81
2022/02/23 04:04:40;;;;;;;10.20;1.83;;;;;;;5.37;78.65;101273.59;5036575;28;20206;-82
2022/02/23 04:07:07;;;;;;;10.47;2.13;;;;;;;5.34;78.70;101267.53;5035447;28;20224;-82
2022/02/23 04:09:34;;;;;;;10.77;2.00;;;;;;;5.32;78.28;101270.22;5023115;28;20210;-81
2022/02/23 04:12:01;;;;;;;7.40;1.70;;;;;;;5.30;78.17;101276.47;5019067;28;20203;-82
2022/02/23 04:14:27;;;;;;;12.37;2.73;;;;;;;5.29;78.16;101277.38;5035587;28;20556;-82
2022/02/23 04:16:54;;;;;;;12.23;2.30;;;;;;;5.26;78.21;101280.97;5026928;28;20208;-81
2022/02/23 04:19:22;;;;;;;6.23;1.67;;;;;;;5.25;78.18;101289.78;5016207;28;20213;-81
2022/02/23 04:21:48;;;;;;;12.93;2.43;;;;;;;5.23;78.16;101296.91;5027847;28;20657;-81
2022/02/23 04:24:15;;;;;;;12.23;2.00;;;;;;;5.19;77.99;101295.28;5019864;28;20234;-81
2022/02/23 04:26:42;;;;;;;8.87;1.97;;;;;;;5.17;77.94;101305.03;5027186;28;20210;-82
2022/02/23 04:29:08;;;;;;;10.43;2.57;;;;;;;5.14;77.86;101313.03;5015258;28;20199;-81
2022/02/23 04:31:35;;;;;;;10.83;2.13;;;;;;;5.10;78.03;101316.69;5036067;28;20675;-83
2022/02/23 04:34:03;;;;;;;14.80;3.07;;;;;;;5.07;77.88;101324.69;5034804;28;20234;-82
2022/02/23 04:36:31;;;;;;;15.83;2.27;;;;;;;5.03;77.89;101331.81;5032340;28;20207;-82
2022/02/23 04:38:57;;;;;;;12.50;2.00;;;;;;;5.00;78.05;101341.63;5019576;28;20213;-82
2022/02/23 04:41:24;;;;;;;17.70;2.17;;;;;;;4.97;77.88;101337.31;5022701;28;20572;-82
2022/02/23 04:43:50;;;;;;;13.10;2.40;;;;;;;4.94;78.21;101345.31;5027694;28;20304;-83
2022/02/23 04:46:17;;;;;;;11.57;2.20;;;;;;;4.92;78.33;101344.47;5022193;28;20208;-82
2022/02/23 04:48:45;;;;;;;15.17;2.97;;;;;;;4.89;78.28;101349.84;5023891;28;20207;-82
2022/02/23 04:51:12;;;;;;;15.20;2.40;;;;;;;4.86;78.41;101357.84;5022919;28;20206;-81
2022/02/23 04:53:40;;;;;;;13.63;1.97;;;;;;;4.84;78.25;101357.88;5030988;28;20678;-82
2022/02/23 04:56:07;;;;;;;11.60;2.60;;;;;;;4.84;78.64;101362.28;5029911;28;20205;-82
2022/02/23 04:58:34;;;;;;;14.93;2.67;;;;;;;4.80;78.44;101365.97;5040562;28;20198;-81
2022/02/23 05:01:01;;;;;;;8.50;1.90;;;;;;;4.79;78.80;101373.00;5036663;28;20217;-81
2022/02/23 05:03:27;;;;;;;12.37;2.00;;;;;;;4.76;78.81;101370.44;5036402;28;20360;-82
2022/02/23 05:05:54;;;;;;;14.73;2.33;;;;;;;4.76;79.19;101374.88;5034287;28;20903;-82
2022/02/23 05:08:21;;;;;;;10.60;2.33;;;;;;;4.76;78.94;101385.41;5035034;28;20285;-83
2022/02/23 05:10:49;;;;;;;12.50;2.60;;;;;;;4.74;79.00;101377.53;5032546;28;20215;-83
2022/02/23 05:13:16;;;;;;;16.30;3.13;;;;;;;4.73;79.40;101389.00;5025825;28;20240;-82
2022/02/23 05:15:42;;;;;;;13.77;2.53;;;;;;;4.72;79.40;101387.28;5030599;28;20203;-83
2022/02/23 05:18:09;;;;;;;12.73;2.67;;;;;;;4.71;79.73;101397.88;5035134;28;20293;-83
2022/02/23 05:20:37;;;;;;;11.90;2.63;;;;;;;4.69;79.50;101400.53;5030499;28;20206;-83
2022/02/23 05:23:05;;;;;;;14.70;2.67;;;;;;;4.70;79.82;101402.28;5035973;28;20313;-83
2022/02/23 05:25:32;;;;;;;16.03;2.83;;;;;;;4.68;79.71;101404.09;5021856;28;20257;-82
2022/02/23 05:28:00;;;;;;;11.00;2.33;;;;;;;4.70;80.13;101409.31;5026578;28;20217;-81
2022/02/23 05:30:26;;;;;;;11.60;2.53;;;;;;;4.71;80.38;101424.25;5028691;28;20207;-81
2022/02/23 05:32:53;;;;;;;15.03;2.40;;;;;;;4.71;80.57;101419.84;5022630;28;20226;-82
2022/02/23 05:35:19;;;;;;;15.83;3.13;;;;;;;4.71;80.42;101418.97;5029706;28;20214;-81
2022/02/23 05:37:49;;;;;;;13.13;2.57;;;;;;;4.71;80.71;101426.88;5023492;28;20297;-82
2022/02/23 05:40:16;;;;;;;15.63;2.73;;;;;;;4.70;81.26;101435.72;5024044;28;20661;-82
2022/02/23 05:42:43;;;;;;;13.93;3.00;;;;;;;4.69;81.50;101434.84;5018372;28;20237;-83
2022/02/23 05:45:11;;;;;;;19.63;3.17;;;;;;;4.70;81.04;101443.63;5021051;28;20489;-82
2022/02/23 05:47:38;;;;;;;13.43;2.73;;;;;;;4.71;81.58;101448.88;5021744;28;20685;-83
2022/02/23 05:50:06;;;;;;;13.80;2.60;;;;;;;4.71;81.27;101446.22;5019231;28;20203;-83
2022/02/23 05:52:32;;;;;;;14.50;3.10;;;;;;;4.71;81.80;101455.91;5025444;28;20312;-83
2022/02/23 05:54:59;;;;;;;12.00;3.07;;;;;;;4.73;81.82;101470.81;5021980;28;20217;-83
2022/02/23 05:57:26;;;;;;;16.70;2.77;;;;;;;4.73;81.84;101459.38;5027500;28;20293;-83
2022/02/23 05:59:52;;;;;;;14.47;2.73;;;;;;;4.73;81.70;101465.53;5024074;28;20209;-82
2022/02/23 06:02:20;;;;;;;18.67;3.40;;;;;;;4.73;82.03;101480.50;5021221;28;20213;-83
2022/02/23 06:04:47;;;;;;;13.67;2.67;;;;;;;4.74;82.10;101471.66;5025979;28;20202;-83
2022/02/23 06:07:13;;;;;;;13.07;3.30;;;;;;;4.75;81.88;101482.19;5027603;28;20217;-83
2022/02/23 06:09:40;;;;;;;14.43;2.90;;;;;;;4.77;81.84;101477.75;5029583;28;20206;-83
2022/02/23 06:12:07;;;;;;;13.17;2.90;;;;;;;4.76;81.81;101490.97;5024083;28;20198;-82
2022/02/23 06:14:34;;;;;;;13.83;2.90;;;;;;;4.78;82.29;101491.81;5025172;28;20233;-82
2022/02/23 06:17:00;;;;;;;12.10;3.33;;;;;;;4.80;82.01;101490.00;5025020;28;20206;-82
2022/02/23 06:19:28;;;;;;;12.37;3.13;;;;;;;4.79;81.91;101489.13;5034286;28;20210;-82
2022/02/23 06:21:55;;;;;;;10.57;2.37;;;;;;;4.81;82.23;101499.66;5023246;28;20207;-82
2022/02/23 06:24:24;;;;;;;18.07;3.23;;;;;;;4.81;82.15;101489.09;5026878;28;20240;-82
2022/02/23 06:26:50;;;;;;;16.53;3.33;;;;;;;4.82;81.89;101494.34;5022103;28;20214;-83
2022/02/23 06:29:18;;;;;;;14.03;2.77;;;;;;;4.81;81.93;101486.44;5031356;28;20217;-83
2022/02/23 06:31:57;;;;;;;9.43;3.23;;;;;;;4.83;81.98;101492.56;5030569;28;20668;-83
2022/02/23 06:34:24;;;;;;;11.67;2.83;;;;;;;4.82;81.43;101494.34;5021431;28;20230;-81
2022/02/23 06:36:52;;;;;;;18.27;3.13;;;;;;;4.82;81.64;101502.25;5031545;28;20582;-82
2022/02/23 06:39:19;;;;;;;15.00;2.87;;;;;;;4.84;81.74;101502.19;5026726;28;20201;-83
2022/02/23 06:41:46;;;;;;;15.80;3.27;;;;;;;4.84;81.79;101504.81;5028315;28;20206;-82
2022/02/23 06:44:13;;;;;;;18.30;4.50;;;;;;;4.83;81.49;101509.25;5028579;28;20218;-82
2022/02/23 06:46:43;;;;;;;19.43;4.43;;;;;;;4.85;81.74;101512.69;5031252;28;20293;-82
2022/02/23 06:49:12;;;;;;;12.67;3.30;;;;;;;4.85;81.73;101517.97;5026831;28;20770;-82
2022/02/23 06:51:41;;;;;;;12.17;3.23;;;;;;;4.85;81.81;101517.09;5028178;28;20583;-81
2022/02/23 06:54:08;;;;;;;15.90;3.23;;;;;;;4.85;81.64;101525.91;5031443;28;20234;-81
2022/02/23 06:56:35;;;;;;;19.73;3.53;;;;;;;4.87;81.76;101525.84;5030204;28;20202;-82
2022/02/23 06:59:04;;;;;;;17.70;3.67;;;;;;;4.87;81.48;101539.91;5031541;28;20577;-82
2022/02/23 07:01:31;;;;;;;18.73;3.83;;;;;;;4.88;81.79;101539.03;5031474;28;20658;-81
2022/02/23 07:03:58;;;;;;;18.60;2.87;;;;;;;4.88;81.93;101540.78;5033363;28;20250;-81
2022/02/23 07:06:25;;;;;;;16.63;3.20;;;;;;;4.88;81.78;101546.94;5030056;28;20209;-82
2022/02/23 07:08:52;;;;;;;17.50;3.37;;;;;;;4.89;81.67;101551.31;5028656;28;20256;-81
2022/02/23 07:11:19;;;;;;;13.67;3.00;;;;;;;4.88;81.84;101554.00;5029223;28;20201;-82
2022/02/23 07:13:46;;;;;;;19.90;3.50;;;;;;;4.89;81.85;101558.38;5018775;28;20237;-81
2022/02/23 07:16:15;;;;;;;20.47;3.87;;;;;;;4.91;81.87;101563.59;5028244;28;20808;-81
2022/02/23 07:18:42;;;;;;;19.37;3.70;;;;;;;4.91;81.73;101571.53;5025295;28;20226;-81
2022/02/23 07:21:09;;;;;;;10.23;2.70;;;;;;;4.91;82.00;101579.44;5023054;28;20202;-82
2022/02/23 07:23:35;;;;;;;11.07;2.83;;;;;;;4.91;81.90;101580.31;5019371;28;20238;-81
2022/02/23 07:26:02;;;;;;;10.37;2.77;;;;;;;4.93;81.87;101583.78;5028331;28;20206;-82
2022/02/23 07:28:30;;;;;;;18.53;3.37;;;;;;;4.94;82.06;101582.88;5020273;28;20218;-82
2022/02/23 07:30:57;;;;;;;13.47;3.53;;;;;;;4.96;82.13;101586.34;5023757;28;20210;-81
2022/02/23 07:33:23;;;;;;;15.93;3.10;;;;;;;4.98;81.99;101595.09;5025805;28;20241;-82
2022/02/23 07:35:50;;;;;;;19.10;3.83;;;;;;;4.98;81.87;101592.47;5021792;28;20215;-81
2022/02/23 07:38:17;;;;;;;14.47;4.03;;;;;;;5.01;81.57;101597.66;5020558;28;20207;-82
2022/02/23 07:40:44;;;;;;;14.37;3.17;;;;;;;5.04;82.05;101594.06;5018029;28;20657;-81
2022/02/23 07:43:10;;;;;;;13.00;3.30;;;;;;;5.06;82.09;101598.41;5023096;28;20223;-81
2022/02/23 07:45:40;;;;;;;9.47;2.83;;;;;;;5.08;82.11;101599.22;5025774;28;20202;-82
2022/02/23 07:48:08;;;;;;;10.83;2.60;;;;;;;5.11;82.08;101600.94;5016718;28;20215;-81
2022/02/23 07:50:35;;;;;;;13.07;3.10;;;;;;;5.12;81.85;101613.22;5021680;28;20214;-82
2022/02/23 07:53:02;;;;;;;13.47;3.77;;;;;;;5.13;82.07;101607.03;5024901;28;20226;-81
2022/02/23 07:55:29;;;;;;;11.27;3.10;;;;;;;5.16;81.96;101609.59;5022616;28;20220;-81
2022/02/23 07:57:58;;;;;;;12.07;3.00;;;;;;;5.20;81.86;101613.88;5024769;28;20216;-80
2022/02/23 08:00:27;;;;;;;13.20;2.97;;;;;;;5.23;81.77;101624.38;5035895;28;20210;-80
2022/02/23 08:02:55;;;;;;;16.10;3.70;;;;;;;5.26;81.63;101624.28;5029997;28;20258;-82
2022/02/23 08:05:24;;;;;;;17.17;3.40;;;;;;;5.28;81.57;101621.63;5018355;28;20210;-81
2022/02/23 08:07:52;;;;;;;19.20;3.03;;;;;;;5.31;81.56;101629.47;5029577;28;20281;-81
2022/02/23 08:10:19;;;;;;;11.40;2.63;;;;;;;5.34;81.59;101634.69;5019137;28;20222;-82
2022/02/23 08:12:45;;;;;;;16.23;3.67;;;;;;;5.38;81.57;101641.59;5034539;28;20730;-81
2022/02/23 08:20:42;;;;;;;17.10;4.17;;;;;;;5.57;81.17;101641.06;5032517;28;20264;-84
2022/02/23 08:23:11;;;;;;;14.33;3.40;;;;;;;5.63;81.15;101647.09;5033369;28;20267;-82
2022/02/23 08:25:39;;;;;;;14.33;3.10;;;;;;;5.70;80.96;101644.25;5022909;28;20603;-84
2022/02/23 08:28:06;;;;;;;14.67;3.17;;;;;;;5.79;80.89;101644.00;5017302;28;20314;-85
2022/02/23 08:30:33;;;;;;;22.57;4.20;;;;;;;5.85;80.49;101638.53;5029769;28;20220;-84
2022/02/23 08:33:03;;;;;;;11.97;3.40;;;;;;;5.92;80.74;101636.59;5019361;28;20226;-84
2022/02/23 08:35:29;;;;;;;19.57;4.17;;;;;;;5.98;80.11;101639.09;5029274;28;20236;-84
2022/02/23 08:37:56;;;;;;;10.53;3.00;;;;;;;6.00;79.58;101645.19;5032655;28;20221;-84
2022/02/23 08:40:23;;;;;;;12.10;3.10;;;;;;;6.08;79.70;101647.66;5020973;28;20213;-85
2022/02/23 08:42:49;;;;;;;13.13;3.13;;;;;;;6.15;79.36;101650.03;5024910;28;20229;-85
2022/02/23 08:45:16;;;;;;;13.17;3.30;;;;;;;6.24;79.10;101646.28;5034895;28;20649;-85
2022/02/23 08:47:42;;;;;;;9.10;2.80;;;;;;;6.33;79.12;101645.13;5021837;28;20285;-85
2022/02/23 08:50:11;;;;;;;14.73;2.87;;;;;;;6.40;78.97;101641.38;5033373;28;20795;-85
2022/02/23 08:52:37;;;;;;;17.03;3.67;;;;;;;6.47;78.69;101645.56;5033093;28;20226;-86
2022/02/23 08:55:07;;;;;;;15.93;3.10;;;;;;;6.53;77.92;101650.69;5028589;28;20313;-86
2022/02/23 08:57:33;;;;;;;12.27;3.70;;;;;;;6.61;78.39;101643.38;5024433;28;20637;-86
2022/02/23 09:00:00;;;;;;;14.47;3.23;;;;;;;6.68;78.23;101654.63;5028159;28;20216;-85
2022/02/23 09:02:26;;;;;;;12.40;3.27;;;;;;;6.75;77.72;101645.59;5020980;28;20230;-85
2022/02/23 09:04:53;;;;;;;12.47;2.97;;;;;;;6.81;77.69;101648.03;5034367;28;20573;-85
2022/02/23 09:07:20;;;;;;;9.33;3.10;;;;;;;6.86;76.64;101654.03;5033076;28;20217;-85
2022/02/23 09:09:47;;;;;;;10.60;3.10;;;;;;;6.92;76.91;101646.78;5034006;28;20214;-85
2022/02/23 09:12:13;;;;;;;9.90;2.70;;;;;;;7.00;76.53;101645.66;5029966;28;20585;-85
2022/02/23 09:14:42;;;;;;;14.23;3.20;;;;;;;7.04;75.86;101652.59;5023152;28;20236;-85
2022/02/23 09:17:08;;;;;;;11.57;2.87;;;;;;;7.09;75.23;101640.94;5033042;28;20293;-85
2022/02/23 09:19:35;;;;;;;15.27;3.53;;;;;;;7.12;75.01;101639.97;5025954;28;20217;-85
2022/02/23 09:22:01;;;;;;;9.17;2.90;;;;;;;7.16;74.91;101645.13;5014132;28;20210;-85
2022/02/23 09:24:29;;;;;;;12.27;2.97;;;;;;;7.23;74.27;101649.28;5019998;28;20309;-85
2022/02/23 09:26:56;;;;;;;13.43;3.03;;;;;;;7.31;74.13;101649.91;5032989;28;20680;-85
2022/02/23 09:29:24;;;;;;;11.83;2.73;;;;;;;7.39;74.11;101657.56;5033208;28;20714;-85
2022/02/23 09:31:51;;;;;;;12.43;3.10;;;;;;;7.40;73.66;101651.34;5026364;28;20305;-85
2022/02/23 09:34:19;;;;;;;15.13;3.63;;;;;;;7.45;73.48;101657.38;5014888;28;20230;-86
2022/02/23 09:36:46;;;;;;;8.53;2.53;;;;;;;7.48;72.68;101659.94;5029501;28;20225;-86
2022/02/23 09:39:12;;;;;;;15.07;2.73;;;;;;;7.52;73.38;101666.84;5032842;28;20298;-86
2022/02/23 09:41:41;;;;;;;16.83;3.07;;;;;;;7.58;72.65;101661.31;5033223;28;20213;-86
2022/02/23 09:44:08;;;;;;;8.33;2.87;;;;;;;7.62;72.65;101647.03;5016438;28;20763;-86
2022/02/23 09:46:34;;;;;;;14.83;2.77;;;;;;;7.67;72.01;101652.19;5032565;28;20206;-86
2022/02/23 09:49:01;;;;;;;14.77;3.07;;;;;;;7.68;71.97;101655.72;5032210;28;20202;-85
2022/02/23 09:51:28;;;;;;;12.23;2.80;;;;;;;7.74;71.68;101656.34;5033666;28;20198;-85
2022/02/23 09:53:55;;;;;;;18.90;2.73;;;;;;;7.81;71.55;101664.97;5023004;28;20268;-86
2022/02/23 09:56:23;;;;;;;10.47;3.27;;;;;;;7.88;71.75;101658.53;5029882;28;20264;-86
2022/02/23 09:58:53;;;;;;;14.07;2.63;;;;;;;7.96;71.38;101659.09;5030785;28;20224;-86
2022/02/23 10:01:23;;;;;;;14.30;3.03;;;;;;;8.02;70.82;101664.19;5035375;28;20751;-86
2022/02/23 10:03:51;;;;;;;9.70;2.57;;;;;;;8.05;70.13;101660.56;5038817;28;20275;-86
2022/02/23 10:06:19;;;;;;;12.37;3.33;;;;;;;8.11;69.60;101662.97;5037462;28;20213;-85
2022/02/23 10:08:47;;;;;;;11.47;2.70;;;;;;;8.15;70.04;101675.22;5037736;28;20214;-86
2022/02/23 10:11:17;;;;;;;11.63;3.23;;;;;;;8.20;68.92;101676.78;5028038;28;20717;-85
2022/02/23 10:13:50;;;;;;;8.47;1.90;;;;;;;8.25;68.61;101674.78;5036548;28;20238;-85
2022/02/23 10:16:17;;;;;;;12.03;2.80;;;;;;;8.29;68.35;101683.50;5027912;28;20315;-85
2022/02/23 10:18:44;;;;;;;10.67;2.30;;;;;;;8.32;67.57;101680.78;5030403;28;20202;-87
2022/02/23 10:21:10;;;;;;;11.43;2.57;;;;;;;8.38;67.59;101685.00;5019317;28;20282;-87
2022/02/23 10:23:37;;;;;;;10.83;2.33;;;;;;;8.44;67.53;101682.09;5022732;28;20235;-86
2022/02/23 10:26:09;;;;;;;9.00;2.70;;;;;;;8.45;66.82;101686.47;5037726;28;20209;-86
2022/02/23 10:28:37;;;;;;;12.00;2.17;;;;;;;8.50;66.43;101684.53;5039217;28;20644;-86
2022/02/23 10:31:09;;;;;;;9.53;2.90;;;;;;;8.54;66.65;101683.50;5038059;28;20261;-86
2022/02/23 10:33:38;;;;;;;11.63;2.67;;;;;;;8.59;67.52;101684.19;5038009;28;20645;-86
2022/02/23 10:36:06;;;;;;;12.10;2.50;;;;;;;8.67;67.68;101677.63;5035648;28;20257;-86
2022/02/23 10:38:37;;;;;;;11.40;2.67;;;;;;;8.74;66.92;101686.25;5024951;28;20211;-86
2022/02/23 10:41:05;;;;;;;11.20;2.80;;;;;;;8.73;66.31;101671.22;5038318;28;20661;-86
2022/02/23 10:43:35;;;;;;;15.90;3.10;;;;;;;8.75;66.61;101695.06;5040099;28;20226;-86
2022/02/23 10:46:08;;;;;;;12.23;2.77;;;;;;;8.79;66.47;101675.41;5039164;28;20210;-86
2022/02/23 10:48:37;;;;;;;12.13;2.70;;;;;;;8.85;66.45;101676.06;5037667;28;20214;-86
2022/02/23 10:51:05;;;;;;;9.67;2.80;;;;;;;8.90;66.67;101674.09;5039537;28;20220;-86
2022/02/23 10:53:33;;;;;;;8.67;2.50;;;;;;;8.98;66.01;101677.28;5023692;28;20241;-85
2022/02/23 10:56:01;;;;;;;11.63;2.60;;;;;;;9.02;65.85;101670.91;5028109;28;20219;-85
2022/02/23 10:58:29;;;;;;;10.37;2.30;;;;;;;9.04;65.33;101668.19;5031781;28;20217;-86
2022/02/23 11:01:02;;;;;;;10.90;2.37;;;;;;;9.02;64.42;101673.56;5033410;28;20297;-85
2022/02/23 11:03:30;;;;;;;12.03;2.47;;;;;;;9.02;64.91;101670.06;5032808;28;20226;-86
2022/02/23 11:05:57;;;;;;;9.60;2.07;;;;;;;9.03;64.31;101671.78;5034085;28;20206;-86
2022/02/23 11:08:24;;;;;;;10.90;2.47;;;;;;;9.04;63.88;101673.53;5029214;28;20586;-86
2022/02/23 11:10:51;;;;;;;7.77;2.03;;;;;;;9.09;64.16;101666.22;5035001;28;20210;-86
2022/02/23 11:13:19;;;;;;;11.23;2.53;;;;;;;9.12;64.18;101668.78;5028871;28;20221;-85
2022/02/23 11:15:49;;;;;;;11.60;2.20;;;;;;;9.13;63.54;101677.59;5024890;28;20231;-86
2022/02/23 11:18:17;;;;;;;9.40;2.43;;;;;;;9.12;63.25;101675.88;5027956;28;20217;-86
2022/02/23 11:20:47;;;;;;;10.27;2.60;;;;;;;9.16;62.85;101666.81;5025470;28;20637;-85
2022/02/23 11:23:18;;;;;;;13.20;2.53;;;;;;;9.20;63.18;101665.78;5028397;28;20229;-86
2022/02/23 11:25:48;;;;;;;9.20;2.37;;;;;;;9.22;63.00;101666.59;5029716;28;20289;-86
2022/02/23 11:28:22;;;;;;;8.43;2.43;;;;;;;9.25;62.83;101667.31;5027085;28;20201;-86
2022/02/23 11:30:50;;;;;;;6.37;1.93;;;;;;;9.28;62.40;101669.88;5027503;28;20202;-86
2022/02/23 11:33:22;;;;;;;7.40;2.13;;;;;;;9.33;62.05;101665.19;5033191;28;20256;-86